sensor_id;sensor_type;location;lat;lon;timestamp;pressure;altitude;pressure_sealevel;temperature;humidity
54872;BME280;43914;57.680;11.982;2023-08-24T00:01:42;100627.27;;;14.76;100.00
54872;BME280;43914;57.680;11.982;2023-08-24T00:04:07;100624.30;;;14.71;100.00
54872;BME280;43914;57.680;11.982;2023-08-24T00:06:34;100627.41;;;14.68;100.00
54872;BME280;43914;57.680;11.982;2023-08-24T00:08:59;100626.95;;;14.65;100.00
54872;BME280;43914;57.680;11.982;2023-08-24T00:11:25;100623.52;;;14.62;100.00
54872;BME280;43914;57.680;11.982;2023-08-24T00:13:51;100619.81;;;14.62;100.00
54872;BME280;43914;57.680;11.982;2023-08-24T00:16:20;100619.61;;;14.61;100.00
54872;BME280;43914;57.680;11.982;2023-08-24T00:18:46;100618.62;;;14.61;100.00
54872;BME280;43914;57.680;11.982;2023-08-24T00:21:16;100620.58;;;14.61;100.00
54872;BME280;43914;57.680;11.982;2023-08-24T00:23:49;100617.65;;;14.62;100.00
54872;BME280;43914;57.680;11.982;2023-08-24T00:26:14;100620.02;;;14.60;100.00
54872;BME280;43914;57.680;11.982;2023-08-24T00:28:43;100615.66;;;14.61;100.00
54872;BME280;43914;57.680;11.982;2023-08-24T00:31:09;100613.29;;;14.62;100.00
54872;BME280;43914;57.680;11.982;2023-08-24T00:33:35;100608.94;;;14.63;100.00
54872;BME280;43914;57.680;11.982;2023-08-24T00:36:01;100599.58;;;14.64;100.00
54872;BME280;43914;57.680;11.982;2023-08-24T00:38:27;100594.83;;;14.66;100.00
54872;BME280;43914;57.680;11.982;2023-08-24T00:40:54;100596.59;;;14.67;100.00
54872;BME280;43914;57.680;11.982;2023-08-24T00:43:20;100596.77;;;14.66;100.00
54872;BME280;43914;57.680;11.982;2023-08-24T00:45:55;100595.13;;;14.67;100.00
54872;BME280;43914;57.680;11.982;2023-08-24T00:48:21;100595.49;;;14.65;100.00
54872;BME280;43914;57.680;11.982;2023-08-24T00:50:52;100594.96;;;14.64;100.00
54872;BME280;43914;57.680;11.982;2023-08-24T00:53:19;100594.23;;;14.62;100.00
54872;BME280;43914;57.680;11.982;2023-08-24T00:55:46;100593.25;;;14.59;100.00
54872;BME280;43914;57.680;11.982;2023-08-24T00:58:13;100597.45;;;14.58;100.00
54872;BME280;43914;57.680;11.982;2023-08-24T01:00:39;100599.38;;;14.55;100.00
54872;BME280;43914;57.680;11.982;2023-08-24T01:03:06;100604.09;;;14.51;100.00
54872;BME280;43914;57.680;11.982;2023-08-24T01:05:31;100600.36;;;14.47;100.00
54872;BME280;43914;57.680;11.982;2023-08-24T01:07:57;100596.91;;;14.44;100.00
54872;BME280;43914;57.680;11.982;2023-08-24T01:10:24;100606.03;;;14.41;100.00
54872;BME280;43914;57.680;11.982;2023-08-24T01:15:37;100596.66;;;14.32;100.00
54872;BME280;43914;57.680;11.982;2023-08-24T01:18:11;100601.52;;;14.25;100.00
54872;BME280;43914;57.680;11.982;2023-08-24T01:20:40;100605.68;;;14.20;100.00
54872;BME280;43914;57.680;11.982;2023-08-24T01:26:09;100604.38;;;14.11;100.00
54872;BME280;43914;57.680;11.982;2023-08-24T01:28:33;100604.06;;;14.06;100.00
54872;BME280;43914;57.680;11.982;2023-08-24T01:30:59;100599.04;;;14.00;100.00
54872;BME280;43914;57.680;11.982;2023-08-24T01:33:25;100597.83;;;13.97;100.00
54872;BME280;43914;57.680;11.982;2023-08-24T01:35:50;100594.64;;;13.94;100.00
54872;BME280;43914;57.680;11.982;2023-08-24T01:38:16;100595.73;;;13.90;100.00
54872;BME280;43914;57.680;11.982;2023-08-24T01:44:01;100593.77;;;13.84;100.00
54872;BME280;43914;57.680;11.982;2023-08-24T01:46:28;100595.35;;;13.83;100.00
54872;BME280;43914;57.680;11.982;2023-08-24T01:48:55;100592.11;;;13.83;100.00
54872;BME280;43914;57.680;11.982;2023-08-24T01:51:23;100592.32;;;13.83;100.00
54872;BME280;43914;57.680;11.982;2023-08-24T01:53:50;100589.41;;;13.83;100.00
54872;BME280;43914;57.680;11.982;2023-08-24T01:56:17;100582.10;;;13.80;100.00
54872;BME280;43914;57.680;11.982;2023-08-24T01:58:42;100586.66;;;13.85;100.00
54872;BME280;43914;57.680;11.982;2023-08-24T02:01:08;100585.03;;;13.86;100.00
54872;BME280;43914;57.680;11.982;2023-08-24T02:03:34;100587.45;;;13.88;100.00
54872;BME280;43914;57.680;11.982;2023-08-24T02:06:00;100585.00;;;13.91;100.00
54872;BME280;43914;57.680;11.982;2023-08-24T02:08:25;100587.91;;;13.92;100.00
54872;BME280;43914;57.680;11.982;2023-08-24T02:10:51;100582.63;;;13.92;100.00
54872;BME280;43914;57.680;11.982;2023-08-24T02:13:16;100577.69;;;13.93;100.00
54872;BME280;43914;57.680;11.982;2023-08-24T02:15:42;100570.70;;;13.91;100.00
54872;BME280;43914;57.680;11.982;2023-08-24T02:18:07;100575.70;;;13.92;100.00
54872;BME280;43914;57.680;11.982;2023-08-24T02:20:37;100576.95;;;13.90;100.00
54872;BME280;43914;57.680;11.982;2023-08-24T02:23:04;100577.70;;;13.90;100.00
54872;BME280;43914;57.680;11.982;2023-08-24T02:25:30;100582.73;;;13.89;100.00
54872;BME280;43914;57.680;11.982;2023-08-24T02:27:56;100587.88;;;13.88;100.00
54872;BME280;43914;57.680;11.982;2023-08-24T02:30:21;100586.95;;;13.87;100.00
54872;BME280;43914;57.680;11.982;2023-08-24T02:32:47;100584.91;;;13.87;100.00
54872;BME280;43914;57.680;11.982;2023-08-24T02:35:12;100582.89;;;13.88;100.00
54872;BME280;43914;57.680;11.982;2023-08-24T02:37:38;100585.80;;;13.89;100.00
54872;BME280;43914;57.680;11.982;2023-08-24T02:40:03;100583.46;;;13.89;100.00
54872;BME280;43914;57.680;11.982;2023-08-24T02:42:33;100582.21;;;13.86;100.00
54872;BME280;43914;57.680;11.982;2023-08-24T02:44:59;100584.75;;;13.84;100.00
54872;BME280;43914;57.680;11.982;2023-08-24T02:47:25;100583.39;;;13.81;100.00
54872;BME280;43914;57.680;11.982;2023-08-24T02:49:50;100585.77;;;13.80;100.00
54872;BME280;43914;57.680;11.982;2023-08-24T02:52:17;100588.25;;;13.78;100.00
54872;BME280;43914;57.680;11.982;2023-08-24T02:54:42;100582.02;;;13.78;100.00
54872;BME280;43914;57.680;11.982;2023-08-24T02:57:08;100580.44;;;13.79;100.00
54872;BME280;43914;57.680;11.982;2023-08-24T02:59:34;100584.73;;;13.79;100.00
54872;BME280;43914;57.680;11.982;2023-08-24T03:01:59;100586.84;;;13.80;100.00
54872;BME280;43914;57.680;11.982;2023-08-24T03:04:25;100583.39;;;13.80;100.00
54872;BME280;43914;57.680;11.982;2023-08-24T03:06:51;100578.37;;;13.80;100.00
54872;BME280;43914;57.680;11.982;2023-08-24T03:09:16;100578.73;;;13.81;100.00
54872;BME280;43914;57.680;11.982;2023-08-24T03:11:42;100579.11;;;13.81;100.00
54872;BME280;43914;57.680;11.982;2023-08-24T03:14:07;100578.15;;;13.81;100.00
54872;BME280;43914;57.680;11.982;2023-08-24T03:16:33;100578.32;;;13.83;100.00
54872;BME280;43914;57.680;11.982;2023-08-24T03:18:59;100575.61;;;13.82;100.00
54872;BME280;43914;57.680;11.982;2023-08-24T03:21:24;100577.08;;;13.82;100.00
54872;BME280;43914;57.680;11.982;2023-08-24T03:23:50;100581.27;;;13.82;100.00
54872;BME280;43914;57.680;11.982;2023-08-24T03:26:15;100581.14;;;13.82;100.00
54872;BME280;43914;57.680;11.982;2023-08-24T03:28:45;100580.10;;;13.81;100.00
54872;BME280;43914;57.680;11.982;2023-08-24T03:31:11;100579.48;;;13.81;100.00
54872;BME280;43914;57.680;11.982;2023-08-24T03:33:36;100575.77;;;13.81;100.00
54872;BME280;43914;57.680;11.982;2023-08-24T03:36:02;100572.75;;;13.81;100.00
54872;BME280;43914;57.680;11.982;2023-08-24T03:38:28;100577.52;;;13.82;100.00
54872;BME280;43914;57.680;11.982;2023-08-24T03:41:00;100576.27;;;13.82;100.00
54872;BME280;43914;57.680;11.982;2023-08-24T03:43:26;100578.40;;;13.82;100.00
54872;BME280;43914;57.680;11.982;2023-08-24T03:45:51;100583.05;;;13.82;100.00
54872;BME280;43914;57.680;11.982;2023-08-24T03:48:17;100585.71;;;13.84;100.00
54872;BME280;43914;57.680;11.982;2023-08-24T03:50:43;100583.01;;;13.85;100.00
54872;BME280;43914;57.680;11.982;2023-08-24T03:53:08;100585.36;;;13.87;100.00
54872;BME280;43914;57.680;11.982;2023-08-24T03:55:34;100585.92;;;13.88;100.00
54872;BME280;43914;57.680;11.982;2023-08-24T03:57:59;100589.38;;;13.89;100.00
54872;BME280;43914;57.680;11.982;2023-08-24T04:00:25;100588.05;;;13.90;100.00
54872;BME280;43914;57.680;11.982;2023-08-24T04:02:51;100590.00;;;13.91;100.00
54872;BME280;43914;57.680;11.982;2023-08-24T04:05:16;100590.57;;;13.92;100.00
54872;BME280;43914;57.680;11.982;2023-08-24T04:07:43;100585.91;;;13.93;100.00
54872;BME280;43914;57.680;11.982;2023-08-24T04:10:08;100583.63;;;13.95;100.00
54872;BME280;43914;57.680;11.982;2023-08-24T04:12:43;100586.77;;;13.97;100.00
54872;BME280;43914;57.680;11.982;2023-08-24T04:15:09;100581.91;;;13.99;100.00
54872;BME280;43914;57.680;11.982;2023-08-24T04:17:35;100581.23;;;14.00;100.00
54872;BME280;43914;57.680;11.982;2023-08-24T04:20:01;100577.75;;;14.01;100.00
54872;BME280;43914;57.680;11.982;2023-08-24T04:22:26;100582.39;;;14.03;100.00
54872;BME280;43914;57.680;11.982;2023-08-24T04:24:52;100584.77;;;14.04;100.00
54872;BME280;43914;57.680;11.982;2023-08-24T04:27:18;100585.39;;;14.05;100.00
54872;BME280;43914;57.680;11.982;2023-08-24T04:29:44;100585.76;;;14.06;100.00
54872;BME280;43914;57.680;11.982;2023-08-24T04:32:10;100583.11;;;14.07;100.00
54872;BME280;43914;57.680;11.982;2023-08-24T04:34:35;100580.35;;;14.07;100.00
54872;BME280;43914;57.680;11.982;2023-08-24T04:37:01;100585.34;;;14.09;100.00
54872;BME280;43914;57.680;11.982;2023-08-24T04:39:26;100587.00;;;14.10;100.00
54872;BME280;43914;57.680;11.982;2023-08-24T04:41:52;100587.08;;;14.11;100.00
54872;BME280;43914;57.680;11.982;2023-08-24T04:44:18;100583.84;;;14.12;100.00
54872;BME280;43914;57.680;11.982;2023-08-24T04:46:44;100583.40;;;14.12;100.00
54872;BME280;43914;57.680;11.982;2023-08-24T04:49:09;100584.33;;;14.14;100.00
54872;BME280;43914;57.680;11.982;2023-08-24T04:51:34;100584.07;;;14.14;100.00
54872;BME280;43914;57.680;11.982;2023-08-24T04:54:00;100583.90;;;14.16;100.00
54872;BME280;43914;57.680;11.982;2023-08-24T04:56:25;100581.86;;;14.18;100.00
54872;BME280;43914;57.680;11.982;2023-08-24T04:58:55;100583.19;;;14.18;100.00
54872;BME280;43914;57.680;11.982;2023-08-24T05:01:26;100582.27;;;14.20;100.00
54872;BME280;43914;57.680;11.982;2023-08-24T05:03:53;100585.44;;;14.22;100.00
54872;BME280;43914;57.680;11.982;2023-08-24T05:06:20;100581.10;;;14.23;100.00
54872;BME280;43914;57.680;11.982;2023-08-24T05:08:45;100580.23;;;14.24;100.00
54872;BME280;43914;57.680;11.982;2023-08-24T05:11:12;100579.05;;;14.25;100.00
54872;BME280;43914;57.680;11.982;2023-08-24T05:13:39;100580.64;;;14.25;100.00
54872;BME280;43914;57.680;11.982;2023-08-24T05:16:05;100578.63;;;14.26;100.00
54872;BME280;43914;57.680;11.982;2023-08-24T05:18:30;100579.92;;;14.28;100.00
54872;BME280;43914;57.680;11.982;2023-08-24T05:20:55;100576.64;;;14.28;100.00
54872;BME280;43914;57.680;11.982;2023-08-24T05:23:21;100578.09;;;14.29;100.00
54872;BME280;43914;57.680;11.982;2023-08-24T05:25:46;100574.59;;;14.31;100.00
54872;BME280;43914;57.680;11.982;2023-08-24T05:28:12;100570.63;;;14.33;100.00
54872;BME280;43914;57.680;11.982;2023-08-24T05:30:38;100573.36;;;14.35;100.00
54872;BME280;43914;57.680;11.982;2023-08-24T05:33:03;100570.99;;;14.36;100.00
54872;BME280;43914;57.680;11.982;2023-08-24T05:35:29;100568.73;;;14.38;100.00
54872;BME280;43914;57.680;11.982;2023-08-24T05:37:54;100570.05;;;14.40;100.00
54872;BME280;43914;57.680;11.982;2023-08-24T05:40:20;100566.55;;;14.42;100.00
54872;BME280;43914;57.680;11.982;2023-08-24T05:42:46;100563.54;;;14.46;100.00
54872;BME280;43914;57.680;11.982;2023-08-24T05:45:11;100562.88;;;14.48;100.00
54872;BME280;43914;57.680;11.982;2023-08-24T05:47:37;100567.77;;;14.52;100.00
54872;BME280;43914;57.680;11.982;2023-08-24T05:50:03;100566.25;;;14.55;100.00
54872;BME280;43914;57.680;11.982;2023-08-24T05:52:28;100569.41;;;14.58;100.00
54872;BME280;43914;57.680;11.982;2023-08-24T05:54:54;100570.30;;;14.64;100.00
54872;BME280;43914;57.680;11.982;2023-08-24T05:57:19;100569.14;;;14.68;100.00
54872;BME280;43914;57.680;11.982;2023-08-24T05:59:45;100565.48;;;14.73;100.00
54872;BME280;43914;57.680;11.982;2023-08-24T06:02:10;100566.01;;;14.77;100.00
54872;BME280;43914;57.680;11.982;2023-08-24T06:04:36;100563.50;;;14.86;100.00
54872;BME280;43914;57.680;11.982;2023-08-24T06:07:01;100559.38;;;14.93;100.00
54872;BME280;43914;57.680;11.982;2023-08-24T06:09:29;100554.29;;;14.94;100.00
54872;BME280;43914;57.680;11.982;2023-08-24T06:11:54;100552.94;;;15.03;100.00
54872;BME280;43914;57.680;11.982;2023-08-24T06:14:20;100548.22;;;15.06;100.00
54872;BME280;43914;57.680;11.982;2023-08-24T06:16:45;100552.19;;;15.08;100.00
54872;BME280;43914;57.680;11.982;2023-08-24T06:19:11;100556.31;;;15.16;100.00
54872;BME280;43914;57.680;11.982;2023-08-24T06:21:36;100557.86;;;15.22;100.00
54872;BME280;43914;57.680;11.982;2023-08-24T06:24:02;100559.81;;;15.27;100.00
54872;BME280;43914;57.680;11.982;2023-08-24T06:26:29;100554.23;;;15.32;100.00
54872;BME280;43914;57.680;11.982;2023-08-24T06:28:54;100556.02;;;15.37;100.00
54872;BME280;43914;57.680;11.982;2023-08-24T06:31:21;100560.60;;;15.43;100.00
54872;BME280;43914;57.680;11.982;2023-08-24T06:33:46;100556.98;;;15.48;100.00
54872;BME280;43914;57.680;11.982;2023-08-24T06:36:12;100552.92;;;15.54;100.00
54872;BME280;43914;57.680;11.982;2023-08-24T06:38:37;100550.73;;;15.56;100.00
54872;BME280;43914;57.680;11.982;2023-08-24T06:41:03;100551.47;;;15.59;100.00
54872;BME280;43914;57.680;11.982;2023-08-24T06:43:28;100553.33;;;15.60;100.00
54872;BME280;43914;57.680;11.982;2023-08-24T06:45:54;100551.02;;;15.62;100.00
54872;BME280;43914;57.680;11.982;2023-08-24T06:48:20;100553.27;;;15.65;100.00
54872;BME280;43914;57.680;11.982;2023-08-24T06:50:45;100545.92;;;15.66;100.00
54872;BME280;43914;57.680;11.982;2023-08-24T06:53:11;100550.61;;;15.69;100.00
54872;BME280;43914;57.680;11.982;2023-08-24T06:55:36;100556.41;;;15.72;100.00
54872;BME280;43914;57.680;11.982;2023-08-24T06:58:03;100563.00;;;15.77;100.00
54872;BME280;43914;57.680;11.982;2023-08-24T07:00:32;100565.89;;;15.81;100.00
54872;BME280;43914;57.680;11.982;2023-08-24T07:02:58;100567.52;;;15.84;100.00
54872;BME280;43914;57.680;11.982;2023-08-24T07:05:25;100566.84;;;15.88;100.00
54872;BME280;43914;57.680;11.982;2023-08-24T07:07:51;100566.23;;;15.91;100.00
54872;BME280;43914;57.680;11.982;2023-08-24T07:10:17;100566.40;;;15.91;100.00
54872;BME280;43914;57.680;11.982;2023-08-24T07:12:43;100570.71;;;15.87;100.00
54872;BME280;43914;57.680;11.982;2023-08-24T07:15:10;100570.38;;;15.90;100.00
54872;BME280;43914;57.680;11.982;2023-08-24T07:17:36;100568.02;;;15.95;100.00
54872;BME280;43914;57.680;11.982;2023-08-24T07:20:03;100568.13;;;16.00;100.00
54872;BME280;43914;57.680;11.982;2023-08-24T07:22:33;100569.36;;;16.03;100.00
54872;BME280;43914;57.680;11.982;2023-08-24T07:25:00;100574.02;;;16.11;100.00
54872;BME280;43914;57.680;11.982;2023-08-24T07:27:26;100580.26;;;16.29;100.00
54872;BME280;43914;57.680;11.982;2023-08-24T07:29:53;100577.59;;;16.28;100.00
54872;BME280;43914;57.680;11.982;2023-08-24T07:32:18;100580.28;;;16.30;100.00
54872;BME280;43914;57.680;11.982;2023-08-24T07:34:48;100579.98;;;16.31;100.00
54872;BME280;43914;57.680;11.982;2023-08-24T07:37:14;100582.48;;;16.33;100.00
54872;BME280;43914;57.680;11.982;2023-08-24T07:39:40;100578.71;;;16.32;100.00
54872;BME280;43914;57.680;11.982;2023-08-24T07:42:05;100576.84;;;16.35;100.00
54872;BME280;43914;57.680;11.982;2023-08-24T07:44:31;100581.60;;;16.43;100.00
54872;BME280;43914;57.680;11.982;2023-08-24T07:46:56;100580.51;;;16.50;100.00
54872;BME280;43914;57.680;11.982;2023-08-24T07:49:22;100584.88;;;16.51;100.00
54872;BME280;43914;57.680;11.982;2023-08-24T07:51:48;100592.13;;;16.48;100.00
54872;BME280;43914;57.680;11.982;2023-08-24T07:54:16;100598.06;;;16.47;100.00
54872;BME280;43914;57.680;11.982;2023-08-24T07:56:42;100594.48;;;16.49;100.00
54872;BME280;43914;57.680;11.982;2023-08-24T07:59:13;100591.20;;;16.52;100.00
54872;BME280;43914;57.680;11.982;2023-08-24T08:01:39;100594.46;;;16.56;100.00
54872;BME280;43914;57.680;11.982;2023-08-24T08:04:04;100603.02;;;16.55;100.00
54872;BME280;43914;57.680;11.982;2023-08-24T08:06:38;100605.20;;;16.55;100.00
54872;BME280;43914;57.680;11.982;2023-08-24T08:09:04;100601.86;;;16.51;100.00
54872;BME280;43914;57.680;11.982;2023-08-24T08:11:30;100604.61;;;16.48;100.00
54872;BME280;43914;57.680;11.982;2023-08-24T08:13:56;100606.40;;;16.48;100.00
54872;BME280;43914;57.680;11.982;2023-08-24T08:16:21;100614.20;;;16.48;100.00
54872;BME280;43914;57.680;11.982;2023-08-24T08:18:47;100613.73;;;16.49;100.00
54872;BME280;43914;57.680;11.982;2023-08-24T08:21:17;100612.19;;;16.49;100.00
54872;BME280;43914;57.680;11.982;2023-08-24T08:23:46;100612.05;;;16.50;100.00
54872;BME280;43914;57.680;11.982;2023-08-24T08:26:12;100608.20;;;16.48;100.00
54872;BME280;43914;57.680;11.982;2023-08-24T08:28:39;100617.67;;;16.52;100.00
54872;BME280;43914;57.680;11.982;2023-08-24T08:31:08;100618.04;;;16.56;100.00
54872;BME280;43914;57.680;11.982;2023-08-24T08:33:33;100613.83;;;16.62;100.00
54872;BME280;43914;57.680;11.982;2023-08-24T08:35:59;100609.33;;;16.59;100.00
54872;BME280;43914;57.680;11.982;2023-08-24T08:38:25;100614.63;;;16.61;100.00
54872;BME280;43914;57.680;11.982;2023-08-24T08:40:57;100618.29;;;16.66;100.00
54872;BME280;43914;57.680;11.982;2023-08-24T08:43:27;100617.45;;;16.76;100.00
54872;BME280;43914;57.680;11.982;2023-08-24T08:45:58;100611.29;;;16.85;100.00
54872;BME280;43914;57.680;11.982;2023-08-24T08:48:25;100618.91;;;16.92;100.00
54872;BME280;43914;57.680;11.982;2023-08-24T08:50:51;100619.86;;;17.04;100.00
54872;BME280;43914;57.680;11.982;2023-08-24T08:53:21;100629.56;;;17.12;100.00
54872;BME280;43914;57.680;11.982;2023-08-24T08:55:51;100630.28;;;17.10;99.96
54872;BME280;43914;57.680;11.982;2023-08-24T08:58:17;100633.45;;;17.03;98.63
54872;BME280;43914;57.680;11.982;2023-08-24T09:00:43;100637.63;;;16.99;99.01
54872;BME280;43914;57.680;11.982;2023-08-24T09:03:10;100637.80;;;16.94;98.16
54872;BME280;43914;57.680;11.982;2023-08-24T09:05:37;100636.59;;;16.91;98.83
54872;BME280;43914;57.680;11.982;2023-08-24T09:08:04;100632.91;;;16.89;98.18
54872;BME280;43914;57.680;11.982;2023-08-24T09:10:30;100630.19;;;16.86;97.99
54872;BME280;43914;57.680;11.982;2023-08-24T09:12:57;100630.36;;;16.85;98.67
54872;BME280;43914;57.680;11.982;2023-08-24T09:15:27;100627.48;;;16.89;99.48
54872;BME280;43914;57.680;11.982;2023-08-24T09:17:54;100623.98;;;16.91;100.00
54872;BME280;43914;57.680;11.982;2023-08-24T09:20:21;100621.39;;;16.87;100.00
54872;BME280;43914;57.680;11.982;2023-08-24T09:22:46;100623.77;;;16.85;99.98
54872;BME280;43914;57.680;11.982;2023-08-24T09:25:12;100624.30;;;16.83;99.78
54872;BME280;43914;57.680;11.982;2023-08-24T09:27:37;100623.64;;;16.79;99.39
54872;BME280;43914;57.680;11.982;2023-08-24T09:30:03;100622.41;;;16.77;99.95
54872;BME280;43914;57.680;11.982;2023-08-24T09:32:31;100620.98;;;16.78;99.99
54872;BME280;43914;57.680;11.982;2023-08-24T09:35:08;100620.41;;;16.77;99.77
54872;BME280;43914;57.680;11.982;2023-08-24T09:37:36;100621.60;;;16.79;100.00
54872;BME280;43914;57.680;11.982;2023-08-24T09:40:07;100624.79;;;16.83;100.00
54872;BME280;43914;57.680;11.982;2023-08-24T09:42:40;100629.67;;;16.93;100.00
54872;BME280;43914;57.680;11.982;2023-08-24T09:45:11;100632.01;;;16.98;100.00
54872;BME280;43914;57.680;11.982;2023-08-24T09:47:38;100636.34;;;17.00;99.59
54872;BME280;43914;57.680;11.982;2023-08-24T09:50:07;100631.66;;;16.98;98.38
54872;BME280;43914;57.680;11.982;2023-08-24T09:52:34;100626.50;;;16.92;98.21
54872;BME280;43914;57.680;11.982;2023-08-24T09:55:06;100626.92;;;16.87;98.42
54872;BME280;43914;57.680;11.982;2023-08-24T09:57:37;100623.37;;;16.80;98.38
54872;BME280;43914;57.680;11.982;2023-08-24T10:00:08;100624.70;;;16.78;98.67
54872;BME280;43914;57.680;11.982;2023-08-24T10:02:49;100631.26;;;16.77;98.78
54872;BME280;43914;57.680;11.982;2023-08-24T10:05:23;100628.02;;;16.86;98.91
54872;BME280;43914;57.680;11.982;2023-08-24T10:07:53;100627.67;;;16.98;99.19
54872;BME280;43914;57.680;11.982;2023-08-24T10:10:24;100630.41;;;17.09;99.37
54872;BME280;43914;57.680;11.982;2023-08-24T10:12:56;100626.42;;;17.12;97.95
54872;BME280;43914;57.680;11.982;2023-08-24T10:15:23;100618.23;;;17.16;97.16
54872;BME280;43914;57.680;11.982;2023-08-24T10:17:50;100613.48;;;17.15;96.64
54872;BME280;43914;57.680;11.982;2023-08-24T10:20:19;100615.61;;;17.16;96.95
54872;BME280;43914;57.680;11.982;2023-08-24T10:22:46;100609.48;;;17.17;96.87
54872;BME280;43914;57.680;11.982;2023-08-24T10:25:13;100602.46;;;17.14;96.05
54872;BME280;43914;57.680;11.982;2023-08-24T10:27:39;100603.05;;;17.14;95.38
54872;BME280;43914;57.680;11.982;2023-08-24T10:30:12;100612.04;;;17.17;95.30
54872;BME280;43914;57.680;11.982;2023-08-24T10:32:39;100611.98;;;17.17;95.40
54872;BME280;43914;57.680;11.982;2023-08-24T10:35:06;100615.22;;;17.22;95.35
54872;BME280;43914;57.680;11.982;2023-08-24T10:37:32;100614.83;;;17.32;94.89
54872;BME280;43914;57.680;11.982;2023-08-24T10:39:59;100615.14;;;17.42;92.54
54872;BME280;43914;57.680;11.982;2023-08-24T10:42:26;100611.96;;;17.57;91.38
54872;BME280;43914;57.680;11.982;2023-08-24T10:44:52;100607.70;;;17.70;91.56
54872;BME280;43914;57.680;11.982;2023-08-24T10:47:20;100606.02;;;17.77;92.06
54872;BME280;43914;57.680;11.982;2023-08-24T10:52:35;100618.14;;;17.77;89.69
54872;BME280;43914;57.680;11.982;2023-08-24T10:55:05;100613.52;;;17.84;88.62
54872;BME280;43914;57.680;11.982;2023-08-24T10:57:56;100610.45;;;17.90;87.68
54872;BME280;43914;57.680;11.982;2023-08-24T11:00:26;100605.52;;;18.00;87.58
54872;BME280;43914;57.680;11.982;2023-08-24T11:02:53;100607.62;;;18.16;88.79
54872;BME280;43914;57.680;11.982;2023-08-24T11:05:43;100605.29;;;18.34;89.72
54872;BME280;43914;57.680;11.982;2023-08-24T11:08:10;100608.91;;;18.48;88.47
54872;BME280;43914;57.680;11.982;2023-08-24T11:13:16;100611.44;;;18.69;88.07
54872;BME280;43914;57.680;11.982;2023-08-24T11:15:50;100618.37;;;18.75;87.78
54872;BME280;43914;57.680;11.982;2023-08-24T11:18:26;100616.61;;;18.69;86.33
54872;BME280;43914;57.680;11.982;2023-08-24T11:20:54;100612.62;;;18.59;85.73
54872;BME280;43914;57.680;11.982;2023-08-24T11:23:21;100611.74;;;18.57;85.69
54872;BME280;43914;57.680;11.982;2023-08-24T11:25:49;100616.56;;;18.47;85.81
54872;BME280;43914;57.680;11.982;2023-08-24T11:28:19;100625.24;;;18.52;86.35
54872;BME280;43914;57.680;11.982;2023-08-24T11:30:45;100617.77;;;18.62;83.49
54872;BME280;43914;57.680;11.982;2023-08-24T11:33:11;100618.78;;;18.69;84.69
54872;BME280;43914;57.680;11.982;2023-08-24T11:35:42;100615.33;;;18.82;84.18
54872;BME280;43914;57.680;11.982;2023-08-24T11:38:10;100610.12;;;18.91;82.55
54872;BME280;43914;57.680;11.982;2023-08-24T11:40:37;100611.52;;;19.00;82.13
54872;BME280;43914;57.680;11.982;2023-08-24T11:43:03;100619.20;;;19.06;78.67
54872;BME280;43914;57.680;11.982;2023-08-24T11:45:31;100612.77;;;19.07;77.12
54872;BME280;43914;57.680;11.982;2023-08-24T11:47:59;100614.10;;;19.11;76.75
54872;BME280;43914;57.680;11.982;2023-08-24T11:50:30;100617.33;;;19.03;74.24
54872;BME280;43914;57.680;11.982;2023-08-24T11:52:56;100619.73;;;18.93;74.95
54872;BME280;43914;57.680;11.982;2023-08-24T11:55:22;100620.86;;;18.88;76.41
54872;BME280;43914;57.680;11.982;2023-08-24T11:57:49;100617.28;;;18.95;76.89
54872;BME280;43914;57.680;11.982;2023-08-24T12:00:18;100620.24;;;19.04;77.55
54872;BME280;43914;57.680;11.982;2023-08-24T12:02:43;100617.11;;;19.15;78.30
54872;BME280;43914;57.680;11.982;2023-08-24T12:05:20;100621.22;;;19.16;76.98
54872;BME280;43914;57.680;11.982;2023-08-24T12:07:46;100619.05;;;19.16;76.24
54872;BME280;43914;57.680;11.982;2023-08-24T12:10:12;100616.63;;;19.15;75.51
54872;BME280;43914;57.680;11.982;2023-08-24T12:12:38;100611.98;;;19.12;73.30
54872;BME280;43914;57.680;11.982;2023-08-24T12:15:03;100614.38;;;19.15;72.50
54872;BME280;43914;57.680;11.982;2023-08-24T12:17:29;100614.06;;;19.12;70.61
54872;BME280;43914;57.680;11.982;2023-08-24T12:20:01;100617.00;;;19.18;71.29
54872;BME280;43914;57.680;11.982;2023-08-24T12:22:31;100615.48;;;19.31;71.07
54872;BME280;43914;57.680;11.982;2023-08-24T12:24:57;100606.35;;;19.53;72.98
54872;BME280;43914;57.680;11.982;2023-08-24T12:27:26;100605.58;;;19.76;72.29
54872;BME280;43914;57.680;11.982;2023-08-24T12:29:52;100604.73;;;19.95;72.44
54872;BME280;43914;57.680;11.982;2023-08-24T12:32:18;100607.51;;;20.06;72.08
54872;BME280;43914;57.680;11.982;2023-08-24T12:34:52;100607.69;;;20.10;71.83
54872;BME280;43914;57.680;11.982;2023-08-24T12:37:17;100614.84;;;20.23;71.01
54872;BME280;43914;57.680;11.982;2023-08-24T12:39:43;100610.33;;;20.38;71.22
54872;BME280;43914;57.680;11.982;2023-08-24T12:42:08;100613.41;;;20.48;69.60
54872;BME280;43914;57.680;11.982;2023-08-24T12:44:34;100610.05;;;20.50;68.65
54872;BME280;43914;57.680;11.982;2023-08-24T12:47:02;100612.96;;;20.57;68.82